Список аэропортов
Фактическая погода:

21 августа, 07:00
Температура: +18°C (+18.0*)
Ветер: юго-восточный 2 м/с
Давление: *765 мм
Без существ. явл.
Время (МСК)Темп. СВетерВлажностьДавлениеОблачностьОсадки
03:00+18Ю, 2 м/с89%1020 гПаясно
04:00+17Ю, 2 м/с92%1020 гПаясно
05:00+16Ю, 2 м/с94%1020 гПаясно
06:00+16Ю, 2 м/с94%1020 гПаясно
07:00+17Ю, 2 м/с89%1020 гПаясно
08:00+20Ю, 2 м/с79%1020 гПаясно
09:00+22Ю, 2 м/с70%1020 гПаясно
10:00+25Ю, 2 м/с62%1020 гПаясно
11:00+27Ю, 3 м/с54%1020 гПаясно
12:00+28Ю, 3 м/с46%1019 гПаясно
13:00+28Ю, 4 м/с42%1019 гПамалооблачно
14:00+29Ю, 5 м/с37%1019 гПас прояснениями
15:00+28Ю, 4 м/с42%1018 гПаоблачно
16:00+28Ю, 4 м/с40%1018 гПамалооблачно
17:00+27Ю, 4 м/с43%1017 гПаясно
18:00+26Ю, 4 м/с49%1017 гПаясно
19:00+24Ю, 3 м/с57%1017 гПаясно
20:00+21Ю, 2 м/с66%1017 гПаясно
21:00+19ЮВ, 2 м/с75%1017 гПаясно
22:00+18ЮВ, 2 м/с80%1017 гПаясно
23:00+18Ю, 3 м/с82%1017 гПаясно
22 августа
00:00+17Ю, 3 м/с85%1017 гПаясно
01:00+16Ю, 3 м/с88%1017 гПаясно
02:00+16Ю, 2 м/с90%1018 гПамалооблачно
03:00+15ЮВ, 3 м/с91%1017 гПамалооблачно
04:00+15ЮВ, 3 м/с92%1017 гПаясно
05:00+14ЮВ, 2 м/с94%1017 гПаясно
06:00+15ЮВ, 2 м/с92%1017 гПамалооблачно
07:00+16ЮВ, 3 м/с84%1017 гПас прояснениями
08:00+19ЮВ, 3 м/с74%1017 гПаоблачно
09:00+22ЮВ, 3 м/с64%1017 гПаоблачно
10:00+24ЮВ, 4 м/с56%1016 гПаоблачно
11:00+26ЮВ, 5 м/с52%1016 гПаоблачно
12:00+27ЮВ, 5 м/с49%1016 гПаоблачно
13:00+28Ю, 6 м/с47%1015 гПаоблачно
14:00+28Ю, 5 м/с44%1015 гПаоблачно
15:00+28Ю, 4 м/с40%1015 гПаоблачно
16:00+28Ю, 4 м/с41%1014 гПаоблачно
17:00+28ЮВ, 4 м/с45%1014 гПаоблачно
18:00+26ЮВ, 4 м/с51%1015 гПаоблачно
19:00+25ЮВ, 4 м/с57%1015 гПаоблачно
20:00+23ЮВ, 3 м/с64%1015 гПаоблачно
21:00+21ЮВ, 3 м/с70%1015 гПаоблачно
22:00+20ЮВ, 3 м/с76%1015 гПаоблачно
23:00+19ЮВ, 2 м/с82%1014 гПаоблачно
23 августа
00:00+18ЮВ, 2 м/с84%1014 гПаоблачно
01:00+17ЮВ, 2 м/с85%1013 гПаоблачно
02:00+16ЮВ, 2 м/с87%1013 гПаоблачно
03:00+15ЮВ, 2 м/с89%1013 гПаоблачно